Time;durP1;ratioP1;P1;durP2;ratioP2;P2;SDS_P1;SDS_P2;PMS_P1;PMS_P2;Temp;Humidity;BMP_temperature;BMP_pressure;BME280_temperature;BME280_humidity;BME280_pressure;Samples;Min_cycle;Max_cycle;Signal;HPM_P1;HPM_P2
2022/04/29 00:01:36;;;;;;;6.63;3.20;;;9.50;97.20;;;;;;5064824;28;20024;-40
2022/04/29 00:04:02;;;;;;;6.57;3.05;;;9.50;97.30;;;;;;5090658;28;20452;-39
2022/04/29 00:06:28;;;;;;;6.03;3.25;;;9.40;97.20;;;;;;5089080;28;20032;-39
2022/04/29 00:08:53;;;;;;;5.97;3.38;;;9.40;97.30;;;;;;5093574;28;20024;-42
2022/04/29 00:11:20;;;;;;;8.48;3.38;;;9.40;97.40;;;;;;5091879;28;20016;-39
2022/04/29 00:13:45;;;;;;;7.07;3.92;;;9.30;97.40;;;;;;5091226;28;20034;-41
2022/04/29 00:16:11;;;;;;;6.07;3.90;;;9.30;97.50;;;;;;5094137;28;20028;-37
2022/04/29 00:18:37;;;;;;;4.63;3.50;;;9.30;97.60;;;;;;5088137;28;20044;-40
2022/04/29 00:21:02;;;;;;;5.32;3.83;;;9.30;97.60;;;;;;5097542;28;20079;-40
2022/04/29 00:23:28;;;;;;;7.60;3.50;;;9.20;97.60;;;;;;5087006;28;20551;-41
2022/04/29 00:25:53;;;;;;;8.45;3.70;;;9.20;97.70;;;;;;5097911;28;20028;-41
2022/04/29 00:28:19;;;;;;;6.43;4.43;;;9.20;97.80;;;;;;5086488;28;20036;-43
2022/04/29 00:30:47;;;;;;;8.30;4.20;;;9.10;97.90;;;;;;5097555;28;20510;-42
2022/04/29 00:33:13;;;;;;;4.78;3.53;;;9.10;97.90;;;;;;5086310;28;20559;-46
2022/04/29 00:35:38;;;;;;;9.15;4.30;;;9.10;98.00;;;;;;5098732;28;20051;-42
2022/04/29 00:38:04;;;;;;;5.78;3.67;;;9.00;98.00;;;;;;5098515;28;20024;-43
2022/04/29 00:40:33;;;;;;;4.63;3.65;;;9.00;98.10;;;;;;5093586;28;20032;-42
2022/04/29 00:42:59;;;;;;;6.38;3.80;;;8.90;98.10;;;;;;5066505;28;20077;-41
2022/04/29 00:45:25;;;;;;;9.27;4.10;;;8.90;98.10;;;;;;5088712;28;20027;-41
2022/04/29 00:47:52;;;;;;;7.78;4.32;;;8.90;98.20;;;;;;5088515;28;20141;-42
2022/04/29 00:50:23;;;;;;;8.50;4.25;;;8.80;98.20;;;;;;5092973;28;20028;-42
2022/04/29 00:52:58;;;;;;;7.07;4.10;;;8.80;98.30;;;;;;5089418;28;20376;-42
2022/04/29 00:55:23;;;;;;;7.45;3.78;;;8.80;98.40;;;;;;5092217;28;20134;-42
2022/04/29 00:58:10;;;;;;;11.57;5.13;;;8.80;98.40;;;;;;5091218;28;20208;-41
2022/04/29 01:00:39;;;;;;;9.65;4.80;;;8.70;98.50;;;;;;5092640;28;20039;-40
2022/04/29 01:03:08;;;;;;;8.32;4.50;;;8.70;98.60;;;;;;5090944;28;20103;-42
2022/04/29 01:05:34;;;;;;;7.38;4.40;;;8.70;98.60;;;;;;5090018;28;20060;-41
2022/04/29 01:07:59;;;;;;;7.63;5.05;;;8.60;98.70;;;;;;5093459;28;20028;-42
2022/04/29 01:10:25;;;;;;;9.60;6.03;;;8.60;98.80;;;;;;5087551;28;20468;-42
2022/04/29 01:12:56;;;;;;;8.60;4.70;;;8.60;98.90;;;;;;5100204;28;20028;-41
2022/04/29 01:15:22;;;;;;;7.80;4.95;;;8.60;98.90;;;;;;5093562;28;20073;-42
2022/04/29 01:17:54;;;;;;;9.32;5.25;;;8.60;99.00;;;;;;5103582;28;20036;-42
2022/04/29 01:20:23;;;;;;;7.05;4.60;;;8.50;99.00;;;;;;5092563;28;20501;-40
2022/04/29 01:22:49;;;;;;;8.90;5.50;;;8.50;99.00;;;;;;5103946;28;20027;-42
2022/04/29 01:25:17;;;;;;;8.65;4.47;;;8.50;99.10;;;;;;5093242;28;20035;-42
2022/04/29 01:27:44;;;;;;;7.03;5.25;;;8.50;99.20;;;;;;5102738;28;20027;-42
2022/04/29 01:30:13;;;;;;;7.88;6.00;;;8.50;99.30;;;;;;5092145;28;20479;-42
2022/04/29 01:32:40;;;;;;;12.40;5.93;;;8.40;99.30;;;;;;5105162;28;20108;-41
2022/04/29 01:35:08;;;;;;;8.23;5.82;;;8.40;99.40;;;;;;5091725;28;20040;-41
2022/04/29 01:37:34;;;;;;;11.20;6.63;;;8.40;99.50;;;;;;5097235;28;20098;-41
2022/04/29 01:40:09;;;;;;;12.13;6.43;;;8.40;99.70;;;;;;5092251;28;20424;-41
2022/04/29 01:42:36;;;;;;;9.13;5.85;;;8.40;99.80;;;;;;5104109;28;20016;-41
2022/04/29 01:45:02;;;;;;;10.98;6.78;;;8.30;99.90;;;;;;5092459;28;20078;-42
2022/04/29 01:47:28;;;;;;;11.52;7.00;;;8.30;99.90;;;;;;5101224;28;20048;-41
2022/04/29 01:49:53;;;;;;;7.75;6.38;;;8.30;99.90;;;;;;5094772;28;20074;-42
2022/04/29 01:52:19;;;;;;;10.63;6.85;;;8.30;99.90;;;;;;5098643;28;20035;-42
2022/04/29 01:54:44;;;;;;;9.93;6.82;;;8.20;99.90;;;;;;5096748;28;20501;-44
2022/04/29 01:57:10;;;;;;;12.50;6.93;;;8.20;99.90;;;;;;5096244;28;20043;-42
2022/04/29 01:59:36;;;;;;;9.88;6.47;;;8.20;99.90;;;;;;5100001;28;20032;-40
2022/04/29 02:02:03;;;;;;;8.65;6.63;;;8.20;99.90;;;;;;5092593;28;20035;-41
2022/04/29 02:04:29;;;;;;;9.82;7.35;;;8.20;99.90;;;;;;5102153;28;20085;-42
2022/04/29 02:06:55;;;;;;;9.93;6.70;;;8.20;99.90;;;;;;5093152;28;20062;-38
2022/04/29 02:09:21;;;;;;;8.00;5.97;;;8.10;99.90;;;;;;5101993;28;20130;-41
2022/04/29 02:12:05;;;;;;;11.20;7.50;;;8.20;99.90;;;;;;5092417;28;20036;-42
2022/04/29 02:14:35;;;;;;;9.70;6.95;;;8.10;99.90;;;;;;5100861;28;20101;-40
2022/04/29 02:17:04;;;;;;;10.27;6.85;;;8.10;99.90;;;;;;5092461;28;20043;-41
2022/04/29 02:19:37;;;;;;;8.40;5.90;;;8.10;99.90;;;;;;5099738;28;20540;-41
2022/04/29 02:22:08;;;;;;;8.35;6.88;;;8.10;99.90;;;;;;5092173;28;20115;-41
2022/04/29 02:24:33;;;;;;;11.02;6.72;;;8.10;99.90;;;;;;5094122;28;20820;-39
2022/04/29 02:27:00;;;;;;;11.07;6.88;;;8.10;99.90;;;;;;5109032;28;20129;-39
2022/04/29 02:29:29;;;;;;;10.63;7.35;;;8.10;99.90;;;;;;5094217;28;20032;-42
2022/04/29 02:31:56;;;;;;;13.07;7.97;;;8.10;99.90;;;;;;5108588;28;20020;-41
2022/04/29 02:34:21;;;;;;;13.00;7.30;;;8.10;99.90;;;;;;5095659;28;20139;-42
2022/04/29 02:36:47;;;;;;;11.60;7.95;;;8.10;99.90;;;;;;5069769;28;20497;-39
2022/04/29 02:39:13;;;;;;;10.60;7.28;;;8.10;99.90;;;;;;5097941;28;20781;-42
2022/04/29 02:41:42;;;;;;;9.85;6.82;;;8.10;99.90;;;;;;5090572;28;20020;-41
2022/04/29 02:44:07;;;;;;;12.73;7.28;;;8.10;99.90;;;;;;5095489;28;20049;-41
2022/04/29 02:46:33;;;;;;;11.13;8.05;;;8.10;99.90;;;;;;5092568;28;20034;-39
2022/04/29 02:49:01;;;;;;;11.05;7.18;;;8.10;99.90;;;;;;5093162;28;20077;-42
2022/04/29 02:51:27;;;;;;;11.05;7.10;;;8.10;99.90;;;;;;5093885;28;20024;-42
2022/04/29 02:53:52;;;;;;;10.57;7.25;;;8.10;99.90;;;;;;5090281;28;20024;-41
2022/04/29 02:56:18;;;;;;;12.68;7.82;;;8.10;99.90;;;;;;5097787;28;20031;-40
2022/04/29 02:58:45;;;;;;;13.20;7.70;;;8.10;99.90;;;;;;5088030;28;20775;-40
2022/04/29 03:01:10;;;;;;;8.98;6.20;;;8.10;99.90;;;;;;5099176;28;20069;-41
2022/04/29 03:03:36;;;;;;;10.45;6.57;;;8.10;99.90;;;;;;5088767;28;20031;-42
2022/04/29 03:06:01;;;;;;;9.43;6.85;;;8.00;99.90;;;;;;5098054;28;20367;-40
2022/04/29 03:08:27;;;;;;;8.75;7.60;;;8.00;99.90;;;;;;5087387;28;20437;-41
2022/04/29 03:10:53;;;;;;;10.82;6.57;;;8.00;99.90;;;;;;5100903;28;20019;-41
2022/04/29 03:13:18;;;;;;;10.00;6.63;;;8.00;99.90;;;;;;5086911;28;20469;-40
2022/04/29 03:15:44;;;;;;;11.20;6.05;;;8.00;99.90;;;;;;5099567;28;20046;-41
2022/04/29 03:18:20;;;;;;;10.98;7.03;;;7.90;99.90;;;;;;5087664;28;20028;-42
2022/04/29 03:20:48;;;;;;;11.95;6.70;;;7.90;99.90;;;;;;5097939;28;20027;-41
2022/04/29 03:23:13;;;;;;;8.98;6.20;;;7.90;99.90;;;;;;5088076;28;20456;-41
2022/04/29 03:25:42;;;;;;;6.93;6.22;;;7.90;99.90;;;;;;5095518;28;20059;-41
2022/04/29 03:28:08;;;;;;;10.60;6.93;;;7.80;99.90;;;;;;5090235;28;20463;-41
2022/04/29 03:30:34;;;;;;;10.80;7.70;;;7.90;99.90;;;;;;5093117;28;20111;-43
2022/04/29 03:33:02;;;;;;;11.73;6.95;;;7.80;99.90;;;;;;5092113;28;20757;-41
2022/04/29 03:35:31;;;;;;;10.63;6.85;;;7.80;99.90;;;;;;5091047;28;20436;-41
2022/04/29 03:37:56;;;;;;;10.52;6.93;;;7.80;99.90;;;;;;5104477;28;20097;-42
2022/04/29 03:40:24;;;;;;;10.38;7.25;;;7.80;99.90;;;;;;5104396;28;20015;-43
2022/04/29 03:42:51;;;;;;;14.85;8.02;;;7.70;99.90;;;;;;5096939;28;20355;-40
2022/04/29 03:45:22;;;;;;;12.45;7.82;;;7.70;99.90;;;;;;5105527;28;20051;-42
2022/04/29 03:47:47;;;;;;;9.18;6.72;;;7.70;99.90;;;;;;5094964;28;20043;-43
2022/04/29 03:50:13;;;;;;;12.95;7.72;;;7.70;99.90;;;;;;5106083;28;20581;-40
2022/04/29 03:52:53;;;;;;;13.02;7.60;;;7.60;99.90;;;;;;5096045;28;20051;-40
2022/04/29 03:55:21;;;;;;;14.02;8.02;;;7.70;99.90;;;;;;5103872;28;20363;-41
2022/04/29 03:57:46;;;;;;;10.95;7.78;;;7.60;99.90;;;;;;5093939;28;20055;-41
2022/04/29 04:00:13;;;;;;;9.98;7.57;;;7.60;99.90;;;;;;5086978;28;20391;-42
2022/04/29 04:02:42;;;;;;;10.88;7.10;;;7.60;99.90;;;;;;5097936;28;20097;-42
2022/04/29 04:05:08;;;;;;;9.45;6.85;;;7.60;99.90;;;;;;5086813;28;20028;-43
2022/04/29 04:07:35;;;;;;;9.90;7.07;;;7.60;99.90;;;;;;5098343;28;20744;-42
2022/04/29 04:10:01;;;;;;;8.88;7.00;;;7.60;99.90;;;;;;5085986;28;20067;-40
2022/04/29 04:12:36;;;;;;;11.50;7.20;;;7.60;99.90;;;;;;5096850;28;20040;-41
2022/04/29 04:15:01;;;;;;;12.27;7.18;;;7.60;99.90;;;;;;5085760;28;20489;-42
2022/04/29 04:17:27;;;;;;;9.23;7.15;;;7.60;99.90;;;;;;5095634;28;20030;-42
2022/04/29 04:19:52;;;;;;;9.57;6.40;;;7.60;99.90;;;;;;5089098;28;20035;-41
2022/04/29 04:22:18;;;;;;;13.13;7.18;;;7.60;99.90;;;;;;5092500;28;20026;-42
2022/04/29 04:24:43;;;;;;;11.52;7.72;;;7.70;99.90;;;;;;5092002;28;20032;-42
2022/04/29 04:27:09;;;;;;;9.45;7.03;;;7.70;99.90;;;;;;5090490;28;20051;-42
2022/04/29 04:29:35;;;;;;;14.75;7.22;;;7.70;99.90;;;;;;5092945;28;20102;-42
2022/04/29 04:32:00;;;;;;;14.15;7.55;;;7.70;99.90;;;;;;5088302;28;20051;-42
2022/04/29 04:37:17;;;;;;;14.73;8.90;;;7.70;99.90;;;;;;5089647;28;20233;-41
2022/04/29 04:39:44;;;;;;;8.45;6.35;;;7.70;99.90;;;;;;5093520;28;20334;-41
2022/04/29 04:42:09;;;;;;;13.00;7.10;;;7.70;99.90;;;;;;5087667;28;20028;-42
2022/04/29 04:44:35;;;;;;;13.02;7.50;;;7.70;99.90;;;;;;5096413;28;20016;-43
2022/04/29 04:47:01;;;;;;;9.25;6.43;;;7.70;99.90;;;;;;5086705;28;20055;-42
2022/04/29 04:49:27;;;;;;;8.77;6.63;;;7.70;99.90;;;;;;5096608;28;20357;-41
2022/04/29 04:51:55;;;;;;;11.05;8.02;;;7.70;99.90;;;;;;5085118;28;20123;-41
2022/04/29 04:54:20;;;;;;;10.77;6.75;;;7.70;99.90;;;;;;5097175;28;20036;-42
2022/04/29 04:56:46;;;;;;;12.02;6.50;;;7.70;99.90;;;;;;5085576;28;20053;-41
2022/04/29 04:59:12;;;;;;;10.57;7.18;;;7.70;99.90;;;;;;5097846;28;20044;-41
2022/04/29 05:01:40;;;;;;;13.88;7.80;;;7.70;99.90;;;;;;5086339;28;20035;-41
2022/04/29 05:04:06;;;;;;;12.75;7.15;;;7.70;99.90;;;;;;5095490;28;20043;-41
2022/04/29 05:06:32;;;;;;;13.65;7.60;;;7.70;99.90;;;;;;5087507;28;20426;-41
2022/04/29 05:08:57;;;;;;;12.65;8.48;;;7.70;99.90;;;;;;5092900;28;20035;-42
2022/04/29 05:11:23;;;;;;;12.18;7.28;;;7.70;99.90;;;;;;5088910;28;20024;-41
2022/04/29 05:13:49;;;;;;;12.82;7.63;;;7.70;99.90;;;;;;5090889;28;20027;-39
2022/04/29 05:16:14;;;;;;;10.98;6.72;;;7.80;99.90;;;;;;5092274;28;20688;-40
2022/04/29 05:18:40;;;;;;;10.73;6.47;;;7.70;99.90;;;;;;5087297;28;20035;-42
2022/04/29 05:21:05;;;;;;;11.13;6.93;;;7.80;99.90;;;;;;5095844;28;20040;-41
2022/04/29 05:23:31;;;;;;;13.05;6.60;;;7.80;99.90;;;;;;5086660;28;20475;-39
2022/04/29 05:25:59;;;;;;;10.55;6.45;;;7.80;99.90;;;;;;5096089;28;20033;-42
2022/04/29 05:28:24;;;;;;;13.95;7.03;;;7.80;99.90;;;;;;5085989;28;20046;-43
2022/04/29 05:30:50;;;;;;;16.17;7.05;;;7.90;99.90;;;;;;5092823;28;20032;-42
2022/04/29 05:33:16;;;;;;;8.27;5.93;;;7.90;99.90;;;;;;5084420;28;20075;-42
2022/04/29 05:35:41;;;;;;;12.15;7.57;;;7.90;99.90;;;;;;5097405;28;20031;-40
2022/04/29 05:38:07;;;;;;;9.90;7.30;;;7.90;99.90;;;;;;5096386;28;20035;-42
2022/04/29 05:43:17;;;;;;;11.68;7.00;;;7.90;99.90;;;;;;5063452;28;20044;-41
2022/04/29 05:45:43;;;;;;;12.43;6.75;;;7.90;99.90;;;;;;5092999;28;20023;-40
2022/04/29 05:48:08;;;;;;;12.15;6.15;;;8.00;99.90;;;;;;5083586;28;20372;-41
2022/04/29 05:50:37;;;;;;;10.23;6.68;;;8.00;99.90;;;;;;5093763;28;20122;-42
2022/04/29 05:53:03;;;;;;;12.27;7.07;;;8.00;99.90;;;;;;5087122;28;20020;-43
2022/04/29 05:55:28;;;;;;;11.27;7.35;;;8.10;99.90;;;;;;5091018;28;20023;-41
2022/04/29 05:57:54;;;;;;;11.75;7.18;;;8.10;99.90;;;;;;5089644;28;20625;-40
2022/04/29 06:00:19;;;;;;;12.45;6.70;;;8.10;99.90;;;;;;5092181;28;20455;-42
2022/04/29 06:02:47;;;;;;;10.35;7.07;;;8.20;99.90;;;;;;5094615;28;20040;-42
2022/04/29 06:05:13;;;;;;;9.48;6.53;;;8.20;99.90;;;;;;5091744;28;20024;-42
2022/04/29 06:07:39;;;;;;;10.70;6.63;;;8.20;99.90;;;;;;5098252;28;20020;-42
2022/04/29 06:10:05;;;;;;;12.13;7.18;;;8.30;99.90;;;;;;5090429;28;20477;-39
2022/04/29 06:12:40;;;;;;;12.75;7.15;;;8.30;99.90;;;;;;5099174;28;20398;-42
2022/04/29 06:15:07;;;;;;;9.82;6.68;;;8.40;99.90;;;;;;5089488;28;20035;-40
2022/04/29 06:17:32;;;;;;;9.77;6.05;;;8.40;99.90;;;;;;5099434;28;20082;-45
2022/04/29 06:19:58;;;;;;;8.80;6.40;;;8.50;99.90;;;;;;5088436;28;20052;-42
2022/04/29 06:22:24;;;;;;;8.27;5.95;;;8.50;99.90;;;;;;5100683;28;20032;-43
2022/04/29 06:24:50;;;;;;;11.25;6.57;;;8.50;99.90;;;;;;5088611;28;20093;-42
2022/04/29 06:27:16;;;;;;;11.10;6.60;;;8.60;99.90;;;;;;5099096;28;20059;-41
2022/04/29 06:29:41;;;;;;;10.65;6.97;;;8.60;99.90;;;;;;5085298;28;20693;-40
2022/04/29 06:32:07;;;;;;;12.30;6.88;;;8.70;99.90;;;;;;5097163;28;20038;-41
2022/04/29 06:34:33;;;;;;;8.57;6.40;;;8.70;99.90;;;;;;5087087;28;20062;-40
2022/04/29 06:36:58;;;;;;;8.60;6.57;;;8.80;99.90;;;;;;5094260;28;20036;-40
2022/04/29 06:39:24;;;;;;;9.90;6.13;;;8.90;99.90;;;;;;5106140;28;20033;-43
2022/04/29 06:41:50;;;;;;;14.13;6.53;;;8.90;99.90;;;;;;5102114;28;20038;-41
2022/04/29 06:44:15;;;;;;;10.63;7.00;;;8.90;99.90;;;;;;5100686;28;20046;-42
2022/04/29 06:46:41;;;;;;;9.85;6.57;;;8.90;99.90;;;;;;5104829;28;20524;-40
2022/04/29 06:49:09;;;;;;;12.10;6.50;;;9.00;99.90;;;;;;5098932;28;20043;-42
2022/04/29 06:51:34;;;;;;;10.65;5.65;;;9.00;99.90;;;;;;5105783;28;20525;-41
2022/04/29 06:54:00;;;;;;;9.15;5.78;;;9.00;99.90;;;;;;5097170;28;20032;-42
2022/04/29 06:56:26;;;;;;;12.07;7.38;;;9.10;99.90;;;;;;5105173;28;20749;-42
2022/04/29 06:58:51;;;;;;;12.00;7.13;;;9.20;99.90;;;;;;5096260;28;20196;-42
2022/04/29 07:01:18;;;;;;;15.75;8.05;;;9.20;99.90;;;;;;5108095;28;20051;-42
2022/04/29 07:03:43;;;;;;;13.05;6.75;;;9.20;99.90;;;;;;5094560;28;20019;-41
2022/04/29 07:06:13;;;;;;;11.52;7.07;;;9.20;99.90;;;;;;5108518;28;20019;-41
2022/04/29 07:08:38;;;;;;;13.32;6.93;;;9.20;99.90;;;;;;5094763;28;20035;-38
2022/04/29 07:11:04;;;;;;;12.40;6.32;;;9.30;99.90;;;;;;5107083;28;20038;-42
2022/04/29 07:13:31;;;;;;;9.48;6.03;;;9.30;99.90;;;;;;5096107;28;20483;-41
2022/04/29 07:15:57;;;;;;;14.60;6.95;;;9.30;99.90;;;;;;5107402;28;20024;-42
2022/04/29 07:18:22;;;;;;;13.10;6.68;;;9.30;99.90;;;;;;5098051;28;20023;-40
2022/04/29 07:20:48;;;;;;;9.93;6.20;;;9.40;99.90;;;;;;5103233;28;20035;-40
2022/04/29 07:23:13;;;;;;;12.38;5.80;;;9.40;99.90;;;;;;5101445;28;20073;-41
2022/04/29 07:25:39;;;;;;;12.88;5.85;;;9.50;99.90;;;;;;5100312;28;20106;-40
2022/04/29 07:28:04;;;;;;;11.60;6.00;;;9.50;99.90;;;;;;5104175;28;20459;-39
2022/04/29 07:30:30;;;;;;;10.85;5.82;;;9.60;99.90;;;;;;5097603;28;20375;-41
2022/04/29 07:32:55;;;;;;;6.88;5.28;;;9.60;99.90;;;;;;5105526;28;20485;-42
2022/04/29 07:43:36;;;;;;;10.93;5.90;;;9.90;99.90;;;;;;5103663;28;20084;-40
2022/04/29 07:46:03;;;;;;;11.15;6.07;;;10.00;99.90;;;;;;5096986;28;20364;-41
2022/04/29 07:48:28;;;;;;;9.45;5.95;;;10.10;99.90;;;;;;5105284;28;20106;-42
2022/04/29 07:50:54;;;;;;;10.43;6.43;;;10.10;99.90;;;;;;5095816;28;20127;-42
2022/04/29 07:53:19;;;;;;;8.85;5.38;;;10.20;99.90;;;;;;5105256;28;20019;-41
2022/04/29 07:55:45;;;;;;;7.93;5.07;;;10.30;99.90;;;;;;5095161;28;20110;-42
2022/04/29 07:58:12;;;;;;;10.65;6.00;;;10.30;99.90;;;;;;5106569;28;20062;-42
2022/04/29 08:00:38;;;;;;;10.48;6.13;;;10.50;99.90;;;;;;5093412;28;20062;-41
2022/04/29 08:03:04;;;;;;;7.90;5.10;;;10.50;99.90;;;;;;5105444;28;20055;-41
2022/04/29 08:05:31;;;;;;;11.63;6.28;;;10.60;99.90;;;;;;5093829;28;20024;-40
2022/04/29 08:07:59;;;;;;;15.50;6.75;;;10.80;99.90;;;;;;5106882;28;20028;-41
2022/04/29 08:10:30;;;;;;;9.95;5.80;;;10.80;99.90;;;;;;5094518;28;20032;-42
2022/04/29 08:13:03;;;;;;;12.20;6.00;;;10.90;99.90;;;;;;5106626;28;20192;-40
2022/04/29 08:15:31;;;;;;;9.80;5.20;;;11.00;99.90;;;;;;5094732;28;20027;-41
2022/04/29 08:17:57;;;;;;;7.90;5.22;;;11.20;99.90;;;;;;5104422;28;20062;-40
2022/04/29 08:20:23;;;;;;;10.93;4.78;;;11.40;99.90;;;;;;5098657;28;20077;-41
2022/04/29 08:22:49;;;;;;;9.40;5.55;;;11.50;99.90;;;;;;5100640;28;20390;-42
2022/04/29 08:25:17;;;;;;;7.22;4.50;;;11.70;99.90;;;;;;5101056;28;20028;-41
2022/04/29 08:27:43;;;;;;;9.40;6.07;;;11.70;99.90;;;;;;5099517;28;20149;-40
2022/04/29 08:30:08;;;;;;;9.80;5.10;;;11.70;99.90;;;;;;5102073;28;20031;-40
2022/04/29 08:32:42;;;;;;;8.55;4.88;;;11.70;99.90;;;;;;5096537;28;20020;-40
2022/04/29 08:35:11;;;;;;;10.95;5.43;;;11.70;99.80;;;;;;5104248;28;20076;-39
2022/04/29 08:37:41;;;;;;;12.00;5.25;;;11.80;99.80;;;;;;5092538;28;20115;-41
2022/04/29 08:40:08;;;;;;;8.52;4.75;;;11.80;99.70;;;;;;5087684;28;20019;-43
2022/04/29 08:42:37;;;;;;;9.27;4.50;;;11.80;99.60;;;;;;5096469;28;20032;-42
2022/04/29 08:45:14;;;;;;;9.18;4.30;;;11.90;99.50;;;;;;5087256;28;20031;-39
2022/04/29 08:47:43;;;;;;;6.63;4.20;;;12.00;99.50;;;;;;5096918;28;20028;-42
2022/04/29 08:50:18;;;;;;;8.52;4.53;;;12.10;99.30;;;;;;5086587;28;20044;-38
2022/04/29 08:52:45;;;;;;;6.13;4.18;;;12.20;99.20;;;;;;5094472;28;20115;-40
2022/04/29 09:00:42;;;;;;;6.35;4.53;;;12.40;98.50;;;;;;5087006;28;20643;-41
2022/04/29 09:03:13;;;;;;;7.45;4.22;;;12.30;98.40;;;;;;5097294;28;20024;-41
2022/04/29 09:05:39;;;;;;;9.27;5.82;;;12.40;98.40;;;;;;5087435;28;20040;-41
2022/04/29 09:08:11;;;;;;;7.55;4.43;;;12.40;98.30;;;;;;5097521;28;20016;-43
2022/04/29 09:10:39;;;;;;;9.57;4.30;;;12.40;98.30;;;;;;5084364;28;20121;-41
2022/04/29 09:13:15;;;;;;;6.93;4.47;;;12.50;98.60;;;;;;5098475;28;20021;-41
2022/04/29 09:15:57;;;;;;;9.82;4.90;;;12.70;98.30;;;;;;5085385;28;20020;-41
2022/04/29 09:18:34;;;;;;;6.30;5.10;;;12.80;98.00;;;;;;5092426;28;20061;-43
2022/04/29 09:21:10;;;;;;;8.40;5.00;;;12.80;97.70;;;;;;5106284;28;20381;-42
2022/04/29 09:23:38;;;;;;;8.75;5.40;;;12.90;97.70;;;;;;5092913;28;20586;-40
2022/04/29 09:26:05;;;;;;;8.93;5.30;;;13.00;97.50;;;;;;5105366;28;20032;-42
2022/04/29 09:28:35;;;;;;;8.45;4.95;;;13.10;97.40;;;;;;5092207;28;20926;-42
2022/04/29 09:31:02;;;;;;;9.25;6.15;;;13.20;97.20;;;;;;5106345;28;20027;-41
2022/04/29 09:33:29;;;;;;;7.25;4.97;;;13.30;96.60;;;;;;5094596;28;20081;-41
2022/04/29 09:35:55;;;;;;;9.27;5.88;;;13.40;96.30;;;;;;5110497;28;20096;-41
2022/04/29 09:41:06;;;;;;;8.35;4.75;;;13.50;96.20;;;;;;5110062;28;20548;-41
2022/04/29 09:43:42;;;;;;;9.45;5.05;;;13.50;96.20;;;;;;5102266;28;20497;-41
2022/04/29 09:46:12;;;;;;;7.47;4.22;;;13.60;96.20;;;;;;5068598;28;20119;-41
2022/04/29 09:48:53;;;;;;;5.45;4.63;;;13.70;96.10;;;;;;5094168;28;20024;-40
2022/04/29 09:51:45;;;;;;;7.50;5.10;;;13.90;96.20;;;;;;5069130;28;20029;-40
2022/04/29 09:54:16;;;;;;;9.90;5.20;;;14.00;96.10;;;;;;5099023;28;20054;-41
2022/04/29 09:56:43;;;;;;;7.72;4.82;;;14.10;95.90;;;;;;5088872;28;20024;-43
2022/04/29 09:59:09;;;;;;;9.15;5.50;;;14.20;95.90;;;;;;5101695;28;20104;-39
2022/04/29 10:01:35;;;;;;;7.45;5.18;;;14.30;95.90;;;;;;5088547;28;20050;-41
2022/04/29 10:04:01;;;;;;;12.07;6.35;;;14.40;95.90;;;;;;5098757;28;20023;-41
2022/04/29 10:06:28;;;;;;;8.98;6.28;;;14.40;95.40;;;;;;5091244;28;20562;-41
2022/04/29 10:08:58;;;;;;;10.13;5.85;;;14.40;95.30;;;;;;5095679;28;20479;-41
2022/04/29 10:11:33;;;;;;;9.98;5.75;;;14.40;95.50;;;;;;5093306;28;20111;-38
2022/04/29 10:14:01;;;;;;;8.93;5.30;;;14.40;95.50;;;;;;5094384;28;20026;-42
2022/04/29 10:16:32;;;;;;;6.70;4.57;;;14.40;95.40;;;;;;5094091;28;20051;-42
2022/04/29 10:21:47;;;;;;;6.32;4.60;;;14.40;95.00;;;;;;5092329;28;20509;-41
2022/04/29 10:24:13;;;;;;;6.95;4.75;;;14.40;95.10;;;;;;5094054;28;20024;-41
2022/04/29 10:26:39;;;;;;;11.55;5.45;;;14.40;94.90;;;;;;5095494;28;20486;-42
2022/04/29 10:29:06;;;;;;;6.38;4.80;;;14.40;94.90;;;;;;5090970;28;20039;-41
2022/04/29 10:31:31;;;;;;;12.10;5.50;;;14.40;94.80;;;;;;5098131;28;20024;-41
2022/04/29 10:34:29;;;;;;;9.38;5.10;;;14.40;94.70;;;;;;5090361;28;20898;-41
2022/04/29 10:36:55;;;;;;;7.75;4.70;;;14.40;94.80;;;;;;5092887;28;20072;-37
2022/04/29 10:39:21;;;;;;;9.52;5.45;;;14.50;94.70;;;;;;5092590;28;20024;-42
2022/04/29 10:42:08;;;;;;;13.07;5.20;;;14.60;94.40;;;;;;5097558;28;20770;-42
2022/04/29 10:44:34;;;;;;;6.05;4.50;;;14.60;94.30;;;;;;5089748;28;20417;-38
2022/04/29 10:47:30;;;;;;;11.25;5.53;;;14.60;94.10;;;;;;5098245;28;20020;-41
2022/04/29 10:50:31;;;;;;;7.10;4.57;;;14.60;94.00;;;;;;5091638;28;20028;-41
2022/04/29 10:53:04;;;;;;;6.88;4.20;;;14.60;94.20;;;;;;5091649;28;20036;-40
2022/04/29 10:55:32;;;;;;;13.90;5.10;;;14.70;94.20;;;;;;5095296;28;20028;-41
2022/04/29 10:58:17;;;;;;;7.88;5.35;;;14.80;94.20;;;;;;5092035;28;20154;-41
2022/04/29 11:00:54;;;;;;;6.80;3.90;;;14.90;94.10;;;;;;5095530;28;20042;-41
2022/04/29 11:03:35;;;;;;;7.43;4.97;;;15.00;94.10;;;;;;5090307;28;20036;-38
2022/04/29 11:06:09;;;;;;;12.77;5.32;;;15.00;93.70;;;;;;5096971;28;20243;-40
2022/04/29 11:08:34;;;;;;;4.35;3.70;;;15.00;93.60;;;;;;5089758;28;20028;-40
2022/04/29 11:11:00;;;;;;;7.15;4.50;;;15.00;93.70;;;;;;5094545;28;20024;-40
2022/04/29 11:13:27;;;;;;;8.50;4.28;;;15.10;93.50;;;;;;5092427;28;20039;-40
2022/04/29 11:16:17;;;;;;;7.45;4.55;;;15.10;93.50;;;;;;5092555;28;20411;-40
2022/04/29 11:18:44;;;;;;;7.43;4.13;;;15.20;93.90;;;;;;5091086;28;20024;-38
2022/04/29 11:26:52;;;;;;;7.20;4.63;;;15.30;93.30;;;;;;5096416;28;20047;-41
2022/04/29 11:29:18;;;;;;;7.90;4.30;;;15.30;93.00;;;;;;5089619;28;20038;-37
2022/04/29 11:31:44;;;;;;;5.80;3.67;;;15.30;93.10;;;;;;5094795;28;20028;-41
2022/04/29 11:34:11;;;;;;;7.95;4.90;;;15.30;93.20;;;;;;5092357;28;20048;-41
2022/04/29 11:36:38;;;;;;;7.35;4.50;;;15.40;93.10;;;;;;5092719;28;20023;-41
2022/04/29 11:39:17;;;;;;;8.95;4.25;;;15.40;92.80;;;;;;5106356;28;20488;-42
2022/04/29 11:41:52;;;;;;;9.02;5.03;;;15.40;92.60;;;;;;5102140;28;20077;-39
2022/04/29 11:44:43;;;;;;;6.32;4.63;;;15.30;92.40;;;;;;5101383;28;20093;-40
2022/04/29 11:47:08;;;;;;;9.23;4.68;;;15.20;92.20;;;;;;5099708;28;20158;-40
2022/04/29 11:49:34;;;;;;;6.55;4.60;;;15.10;92.50;;;;;;5101082;28;20035;-43
2022/04/29 11:52:25;;;;;;;8.65;4.82;;;15.10;92.30;;;;;;5102884;28;20028;-42
2022/04/29 11:55:04;;;;;;;7.15;4.45;;;15.10;92.40;;;;;;5102850;28;20023;-42
2022/04/29 11:57:33;;;;;;;7.40;4.63;;;15.10;92.40;;;;;;5099470;28;20040;-41
2022/04/29 12:00:00;;;;;;;5.10;3.97;;;15.20;92.40;;;;;;5101876;28;20033;-41
2022/04/29 12:02:27;;;;;;;5.80;3.50;;;15.30;92.50;;;;;;5101347;28;20020;-42
2022/04/29 12:04:57;;;;;;;7.03;4.85;;;15.40;92.50;;;;;;5099914;28;20140;-41
2022/04/29 12:07:24;;;;;;;9.18;4.75;;;15.40;91.60;;;;;;5103502;28;20036;-44
2022/04/29 12:09:51;;;;;;;5.60;4.15;;;15.30;91.60;;;;;;5097792;28;20110;-41
2022/04/29 12:12:27;;;;;;;8.40;5.00;;;15.20;91.90;;;;;;5105503;28;20016;-42
2022/04/29 12:14:53;;;;;;;7.22;4.47;;;15.20;91.90;;;;;;5085723;28;20785;-41
2022/04/29 12:17:19;;;;;;;7.80;4.50;;;15.10;92.00;;;;;;5105179;28;20020;-40
2022/04/29 12:19:55;;;;;;;6.38;4.53;;;15.10;91.90;;;;;;5095502;28;20035;-36
2022/04/29 12:22:36;;;;;;;7.60;4.40;;;15.20;91.90;;;;;;5105078;28;20073;-42
2022/04/29 12:25:28;;;;;;;5.93;3.70;;;15.20;91.70;;;;;;5095353;28;20023;-41
2022/04/29 12:28:21;;;;;;;7.57;4.47;;;15.10;91.80;;;;;;5103782;28;20024;-41
2022/04/29 12:37:07;;;;;;;5.03;4.22;;;15.30;91.60;;;;;;5105549;28;20043;-41
2022/04/29 12:39:39;;;;;;;7.05;4.40;;;15.40;91.20;;;;;;5100410;28;20138;-41
2022/04/29 12:42:12;;;;;;;5.72;4.20;;;15.40;91.10;;;;;;5085432;28;20023;-43
2022/04/29 12:48:00;;;;;;;7.70;4.80;;;15.50;90.30;;;;;;5065481;28;20443;-39
2022/04/29 12:50:41;;;;;;;5.32;4.15;;;15.40;90.40;;;;;;5089903;28;20031;-40
2022/04/29 12:53:09;;;;;;;5.03;4.43;;;15.40;90.40;;;;;;5085117;28;20024;-44
2022/04/29 12:55:46;;;;;;;5.85;3.80;;;15.40;90.50;;;;;;5092042;28;20184;-41
2022/04/29 12:58:24;;;;;;;8.30;5.13;;;15.50;90.70;;;;;;5106423;28;20424;-42
2022/04/29 13:00:52;;;;;;;6.43;4.80;;;15.60;90.20;;;;;;5089408;28;20535;-41
2022/04/29 13:03:23;;;;;;;6.18;4.25;;;15.70;90.00;;;;;;5104845;28;20118;-42
2022/04/29 13:05:49;;;;;;;6.65;3.67;;;15.90;90.00;;;;;;5092793;28;20039;-42
2022/04/29 13:08:15;;;;;;;10.13;4.20;;;15.90;89.90;;;;;;5083531;28;20526;-42
2022/04/29 13:10:45;;;;;;;4.93;4.10;;;16.00;89.20;;;;;;5094156;28;20034;-42
2022/04/29 13:13:11;;;;;;;10.43;4.80;;;16.00;89.20;;;;;;5084860;28;20110;-41
2022/04/29 13:15:40;;;;;;;8.80;4.40;;;15.90;88.70;;;;;;5095420;28;20119;-41
2022/04/29 13:18:06;;;;;;;9.55;5.00;;;15.80;87.50;;;;;;5086514;28;20047;-41
2022/04/29 13:20:32;;;;;;;7.82;4.00;;;15.60;87.30;;;;;;5090249;28;20032;-42
2022/04/29 13:22:57;;;;;;;6.15;3.92;;;15.50;88.30;;;;;;5103914;28;20030;-41
2022/04/29 13:25:23;;;;;;;6.45;4.63;;;15.40;88.40;;;;;;5099093;28;20620;-41
2022/04/29 13:27:48;;;;;;;7.55;5.10;;;15.40;88.40;;;;;;5100357;28;20111;-40
2022/04/29 13:30:17;;;;;;;8.65;4.90;;;15.40;88.70;;;;;;5102071;28;20045;-41
2022/04/29 13:32:42;;;;;;;9.65;5.70;;;15.40;88.50;;;;;;5097508;28;20027;-42
2022/04/29 13:35:08;;;;;;;5.57;5.07;;;15.30;88.50;;;;;;5104342;28;20172;-41